createdAt,value
2022-10-26T00:07:01.216Z,94608.75
2022-10-26T00:17:07.534Z,94636.56
2022-10-26T00:27:13.794Z,94645.78
2022-10-26T00:37:20.084Z,94665.22
2022-10-26T00:47:35.379Z,94657.16
2022-10-26T00:57:41.827Z,94684.66
2022-10-26T01:07:48.805Z,94694.19
2022-10-26T01:17:57.919Z,94714.97
2022-10-26T01:28:12.800Z,94709.00
2022-10-26T01:38:31.298Z,94721.34
2022-10-26T01:48:38.430Z,94703.75
2022-10-26T01:58:57.826Z,94716.31
2022-10-26T02:09:09.324Z,94721.63
2022-10-26T02:19:28.941Z,94708.81
2022-10-26T02:29:36.407Z,94710.44
2022-10-26T02:39:43.138Z,94682.31
2022-10-26T02:49:49.383Z,94669.78
2022-10-26T02:59:56.152Z,94661.72
2022-10-26T03:10:02.448Z,94648.09
2022-10-26T03:20:09.579Z,94651.25
2022-10-26T03:30:15.850Z,94583.97
2022-10-26T03:40:22.095Z,94509.62
2022-10-26T03:50:28.351Z,94501.38
2022-10-26T04:00:34.624Z,94494.03
2022-10-26T04:10:40.916Z,94486.94
2022-10-26T04:20:47.250Z,94527.81
2022-10-26T04:30:53.519Z,94563.28
2022-10-26T04:40:59.791Z,94538.41
2022-10-26T04:51:06.036Z,94540.22
2022-10-26T05:01:12.486Z,94521.28
2022-10-26T05:11:18.867Z,94540.69
2022-10-26T05:21:25.161Z,94553.91
2022-10-26T05:31:31.484Z,94570.72
2022-10-26T05:41:37.747Z,94588.84
2022-10-26T05:51:44.007Z,94596.09
2022-10-26T06:01:59.133Z,94593.56
2022-10-26T06:12:06.023Z,94585.81
2022-10-26T06:22:40.673Z,94532.06
2022-10-26T06:32:47.227Z,94500.22
2022-10-26T06:42:53.795Z,94453.44
2022-10-26T06:53:24.829Z,94411.91
2022-10-26T07:03:31.138Z,94375.53
2022-10-26T07:13:37.425Z,94112.44
2022-10-26T07:23:43.708Z,93918.75
2022-10-26T07:33:49.978Z,93899.53
2022-10-26T07:43:56.247Z,93985.84
2022-10-26T07:54:02.562Z,94146.50
2022-10-26T08:04:08.827Z,94408.56
2022-10-26T08:14:15.217Z,94746.16
2022-10-26T08:24:21.474Z,94985.37
2022-10-26T08:34:27.748Z,94970.72
2022-10-26T08:44:41.690Z,95076.38
2022-10-26T08:54:53.712Z,95316.97
2022-10-26T09:05:00.923Z,95550.22
2022-10-26T09:25:24.994Z,95579.31
2022-10-26T09:35:42.722Z,95649.00
2022-10-26T09:45:54.505Z,95669.50
2022-10-26T09:56:20.992Z,95694.66
2022-10-26T10:06:28.624Z,95909.88
2022-10-26T10:16:34.874Z,96021.87
2022-10-26T10:26:57.596Z,96209.12
2022-10-26T10:37:03.909Z,96352.03
2022-10-26T10:47:20.053Z,96422.19
2022-10-26T10:57:41.895Z,96495.37
2022-10-26T11:08:03.772Z,96517.97
2022-10-26T11:18:15.676Z,96509.69
2022-10-26T11:28:50.606Z,96571.87
2022-10-26T11:39:16.115Z,96579.69
2022-10-26T11:49:41.038Z,96720.00
2022-10-26T11:59:51.930Z,96783.69
2022-10-26T12:09:59.007Z,96772.22
2022-10-26T12:20:11.967Z,96853.97
2022-10-26T12:30:21.170Z,96839.81
2022-10-26T12:40:42.934Z,96924.00
2022-10-26T12:50:49.230Z,96747.28
2022-10-26T13:01:01.343Z,96436.69
2022-10-26T13:11:15.319Z,96625.16
2022-10-26T13:21:22.921Z,96639.25
2022-10-26T13:31:35.540Z,96844.63
2022-10-26T13:41:44.862Z,96837.44
2022-10-26T13:51:52.715Z,96888.56
2022-10-26T14:02:23.785Z,96681.53
2022-10-26T14:12:31.876Z,96598.66
2022-10-26T14:22:38.160Z,96492.09
2022-10-26T14:32:44.468Z,96403.87
2022-10-26T14:42:53.105Z,96382.25
2022-10-26T14:53:04.257Z,96237.81
2022-10-26T15:03:17.269Z,96098.41
2022-10-26T15:13:30.598Z,96033.19
2022-10-26T15:23:39.600Z,95979.75
2022-10-26T15:34:05.775Z,95911.56
2022-10-26T15:44:17.287Z,95745.03
2022-10-26T15:54:23.585Z,95630.72
2022-10-26T16:04:28.828Z,95592.53
2022-10-26T16:14:53.392Z,95517.97
2022-10-26T16:25:01.347Z,95330.03
2022-10-26T16:35:07.770Z,95143.78
2022-10-26T16:45:15.202Z,95066.78
2022-10-26T16:55:25.607Z,95219.56
2022-10-26T17:05:31.898Z,95319.19
2022-10-26T17:15:38.154Z,95308.78
2022-10-26T17:25:45.182Z,95146.37
2022-10-26T17:35:54.435Z,95046.09
2022-10-26T17:46:01.955Z,95047.06
2022-10-26T17:56:10.857Z,95010.53
2022-10-26T18:06:18.438Z,94911.50
2022-10-26T18:16:26.203Z,94888.91
2022-10-26T18:26:32.831Z,94847.78
2022-10-26T18:36:39.139Z,94809.13
2022-10-26T18:46:48.941Z,94733.66
2022-10-26T18:56:55.296Z,94728.50
2022-10-26T19:07:03.339Z,94678.28
2022-10-26T19:17:10.232Z,94660.34
2022-10-26T19:37:27.428Z,94558.75
2022-10-26T19:47:34.636Z,94510.09
2022-10-26T19:57:41.942Z,94561.88
2022-10-26T20:07:48.196Z,94476.31
2022-10-26T20:17:54.481Z,94443.22
2022-10-26T20:28:00.772Z,94435.88
2022-10-26T20:38:08.378Z,94436.31
2022-10-26T20:48:15.270Z,94426.19
2022-10-26T20:58:50.391Z,94390.13
2022-10-26T21:08:57.747Z,94369.13
2022-10-26T21:19:06.113Z,94335.25
2022-10-26T21:29:12.367Z,94303.09
2022-10-26T21:39:18.655Z,94300.00
2022-10-26T21:49:24.895Z,94306.34
2022-10-26T21:59:31.204Z,94323.50
2022-10-26T22:09:45.040Z,94334.69
2022-10-26T22:20:03.734Z,94249.41
2022-10-26T22:30:10.488Z,94281.38
2022-10-26T22:40:16.751Z,94279.56
2022-10-26T22:50:23.019Z,94270.37
2022-10-26T23:00:29.291Z,94158.47
2022-10-26T23:10:35.542Z,94162.69
2022-10-26T23:20:42.253Z,94161.72
2022-10-26T23:30:48.900Z,94225.69
2022-10-26T23:40:57.867Z,94303.31
2022-10-26T23:51:04.135Z,94329.00
